Gujranwala Weather



Gujranwala's Current Weather

Temprature 25.03o scattered clouds

scattered clouds

Rain: 0 %

Min Temprature25.03o
Max Temprature25.03o
Humidity74
Wind Speed2.56 m/h
Sun Rise05:53:38
Sun Set17:55:45
Current Time: 26-Sep-2022 09:01:13
Lat/Lon: 32.1617, 74.1883




Gujranwala's Geo Location



Gujranwala's Weather Forecast

Time Overall Temp Min Temp Max Temp Humidity Wind Speed Rain
26-Sep-2022 (Mon)
11:00:00 scattered clouds 25.720 25.720 29.170 74 2.91 m/h 0 %
14:00:00 few clouds 29.120 29.120 31.690 57 2.55 m/h 0 %
17:00:00 clear sky 30.040 30.040 30.040 53 1.23 m/h 0 %
20:00:00 clear sky 25.940 25.940 25.940 60 0.54 m/h 0 %
23:00:00 clear sky 24.870 24.870 24.870 63 0.66 m/h 0 %
27-Sep-2022 (Tue)
02:00:00 clear sky 23.570 23.570 23.570 68 1.56 m/h 0 %
05:00:00 clear sky 22.660 22.660 22.660 73 1.74 m/h 0 %
08:00:00 clear sky 26.060 26.060 26.060 64 1.33 m/h 0 %
11:00:00 clear sky 31.780 31.780 31.780 47 0.55 m/h 0 %
14:00:00 clear sky 33.640 33.640 33.640 40 1.3 m/h 0 %
17:00:00 clear sky 31.460 31.460 31.460 49 2.42 m/h 0 %
20:00:00 clear sky 27.110 27.110 27.110 61 2.81 m/h 0 %
23:00:00 clear sky 25.580 25.580 25.580 67 2.48 m/h 0 %
28-Sep-2022 (Wed)
02:00:00 clear sky 24.580 24.580 24.580 72 2.24 m/h 0 %
05:00:00 clear sky 23.760 23.760 23.760 77 2.01 m/h 0 %
08:00:00 clear sky 26.960 26.960 26.960 66 2.02 m/h 0 %
11:00:00 clear sky 31.880 31.880 31.880 49 2.39 m/h 0 %
14:00:00 clear sky 34.300 34.300 34.300 40 1.96 m/h 0 %
17:00:00 clear sky 31.930 31.930 31.930 49 2.98 m/h 0 %
20:00:00 clear sky 27.720 27.720 27.720 61 2.95 m/h 0 %
23:00:00 clear sky 26.220 26.220 26.220 68 2.33 m/h 0 %
29-Sep-2022 (Thu)
02:00:00 clear sky 25.190 25.190 25.190 72 2.05 m/h 0 %
05:00:00 clear sky 24.240 24.240 24.240 76 1.69 m/h 0 %
08:00:00 clear sky 27.350 27.350 27.350 66 2.19 m/h 0 %
11:00:00 clear sky 32.410 32.410 32.410 47 1.87 m/h 0 %
14:00:00 clear sky 35.080 35.080 35.080 36 1.2 m/h 0 %
17:00:00 clear sky 32.640 32.640 32.640 45 2.5 m/h 0 %
20:00:00 clear sky 28.120 28.120 28.120 59 2.9 m/h 0 %
23:00:00 clear sky 26.710 26.710 26.710 65 1.56 m/h 0 %
30-Sep-2022 (Fri)
02:00:00 clear sky 25.660 25.660 25.660 69 1.74 m/h 0 %
05:00:00 clear sky 24.650 24.650 24.650 73 1.36 m/h 0 %
08:00:00 clear sky 27.330 27.330 27.330 65 2.41 m/h 0 %
11:00:00 clear sky 32.520 32.520 32.520 46 1.98 m/h 0 %
14:00:00 clear sky 35.440 35.440 35.440 34 1.27 m/h 0 %
17:00:00 clear sky 32.950 32.950 32.950 41 2.28 m/h 0 %
20:00:00 clear sky 28.330 28.330 28.330 55 2.76 m/h 0 %
23:00:00 clear sky 26.580 26.580 26.580 63 2.36 m/h 0 %
01-Oct-2022 (Sat)
02:00:00 clear sky 25.340 25.340 25.340 68 2.21 m/h 0 %
05:00:00 clear sky 24.370 24.370 24.370 72 1.59 m/h 0 %
08:00:00 clear sky 27.350 27.350 27.350 61 1.83 m/h 0 %

Famous Cities (61)